createdAt,value
2022-10-17T00:01:08.779Z,102177.84
2022-10-17T00:03:38.534Z,102202.78
2022-10-17T00:06:08.506Z,102200.59
2022-10-17T00:08:36.838Z,102204.31
2022-10-17T00:11:08.711Z,102205.38
2022-10-17T00:13:37.380Z,102203.75
2022-10-17T00:16:06.231Z,102209.97
2022-10-17T00:18:34.407Z,102202.53
2022-10-17T00:21:02.508Z,102200.97
2022-10-17T00:23:30.708Z,102209.06
2022-10-17T00:26:02.344Z,102207.53
2022-10-17T00:28:32.487Z,102210.31
2022-10-17T00:31:02.282Z,102214.00
2022-10-17T00:33:31.467Z,102219.22
2022-10-17T00:36:07.814Z,102219.34
2022-10-17T00:38:36.571Z,102219.34
2022-10-17T00:41:05.793Z,102220.34
2022-10-17T00:44:06.073Z,102206.84
2022-10-17T00:46:36.072Z,102221.38
2022-10-17T00:49:08.182Z,102213.72
2022-10-17T00:51:40.709Z,102224.16
2022-10-17T00:54:10.981Z,102213.94
2022-10-17T00:56:40.610Z,102221.69
2022-10-17T00:59:12.529Z,102219.13
2022-10-17T01:01:42.092Z,102224.25
2022-10-17T01:04:10.791Z,102227.84
2022-10-17T01:06:38.867Z,102229.56
2022-10-17T01:09:07.035Z,102215.84
2022-10-17T01:11:45.908Z,102221.13
2022-10-17T01:14:29.166Z,102227.19
2022-10-17T01:17:05.321Z,102228.13
2022-10-17T01:19:47.205Z,102231.72
2022-10-17T01:22:24.180Z,102230.94
2022-10-17T01:25:23.719Z,102234.34
2022-10-17T01:28:05.807Z,102238.66
2022-10-17T01:31:15.021Z,102231.13
2022-10-17T01:33:50.746Z,102238.16
2022-10-17T01:36:30.266Z,102246.03
2022-10-17T01:39:03.902Z,102243.53
2022-10-17T01:41:40.757Z,102241.94
2022-10-17T01:44:14.144Z,102243.78
2022-10-17T01:46:46.831Z,102248.09
2022-10-17T01:49:19.942Z,102252.41
2022-10-17T01:51:52.541Z,102249.88
2022-10-17T01:54:24.795Z,102250.84
2022-10-17T01:56:57.496Z,102253.50
2022-10-17T01:59:31.593Z,102251.91
2022-10-17T02:02:00.693Z,102248.56
2022-10-17T02:04:30.637Z,102245.22
2022-10-17T02:06:58.803Z,102252.94
2022-10-17T02:09:28.628Z,102255.56
2022-10-17T02:12:14.612Z,102255.66
2022-10-17T02:14:55.749Z,102256.63
2022-10-17T02:17:36.656Z,102256.66
2022-10-17T02:20:17.786Z,102258.44
2022-10-17T02:22:53.442Z,102264.44
2022-10-17T02:25:30.876Z,102271.38
2022-10-17T02:28:07.631Z,102264.53
2022-10-17T02:30:39.862Z,102263.69
2022-10-17T02:33:11.748Z,102265.44
2022-10-17T02:35:47.625Z,102266.38
2022-10-17T02:38:17.040Z,102268.94
2022-10-17T02:40:48.130Z,102269.84
2022-10-17T02:43:16.337Z,102275.00
2022-10-17T02:45:44.459Z,102275.00
2022-10-17T02:48:21.214Z,102277.59
2022-10-17T02:51:00.329Z,102281.03
2022-10-17T02:53:35.977Z,102284.50
2022-10-17T02:56:10.267Z,102289.69
2022-10-17T02:58:39.686Z,102290.53
2022-10-17T03:01:08.581Z,102291.44
2022-10-17T03:03:36.686Z,102283.66
2022-10-17T03:06:06.577Z,102288.88
2022-10-17T03:08:34.638Z,102286.25
2022-10-17T03:11:02.738Z,102294.00
2022-10-17T03:13:31.337Z,102290.56
2022-10-17T03:16:00.346Z,102288.09
2022-10-17T03:18:28.676Z,102295.75
2022-10-17T03:20:56.737Z,102286.34
2022-10-17T03:23:26.329Z,102287.28
2022-10-17T03:25:54.686Z,102287.25
2022-10-17T03:28:23.214Z,102298.41
2022-10-17T03:30:51.568Z,102301.97
2022-10-17T03:33:19.861Z,102305.72
2022-10-17T03:35:47.947Z,102302.09
2022-10-17T03:38:16.227Z,102305.38
2022-10-17T03:40:46.070Z,102298.44
2022-10-17T03:43:14.170Z,102300.16
2022-10-17T03:45:42.361Z,102312.19
2022-10-17T03:48:10.532Z,102299.41
2022-10-17T03:50:38.551Z,102310.91
2022-10-17T03:53:06.733Z,102309.44
2022-10-17T03:55:35.134Z,102308.63
2022-10-17T03:58:04.570Z,102314.69
2022-10-17T04:00:32.602Z,102319.03
2022-10-17T04:03:00.547Z,102322.41
2022-10-17T04:05:28.893Z,102319.00
2022-10-17T04:07:58.726Z,102323.28
2022-10-17T04:10:29.849Z,102328.44
2022-10-17T04:12:58.001Z,102331.75
2022-10-17T04:15:27.499Z,102335.00
2022-10-17T04:17:55.656Z,102338.28
2022-10-17T04:20:23.755Z,102329.69
2022-10-17T04:22:51.877Z,102338.16
2022-10-17T04:25:19.974Z,102339.00
2022-10-17T04:27:49.123Z,102338.13
2022-10-17T04:30:17.871Z,102338.81
2022-10-17T04:32:47.292Z,102333.53
2022-10-17T04:35:15.622Z,102343.72
2022-10-17T04:37:43.591Z,102344.66
2022-10-17T04:40:12.343Z,102341.31
2022-10-17T04:42:40.618Z,102346.31
2022-10-17T04:45:09.637Z,102354.00
2022-10-17T04:47:37.733Z,102347.94
2022-10-17T04:50:08.379Z,102353.94
2022-10-17T04:52:37.675Z,102361.75
2022-10-17T04:55:06.517Z,102364.34
2022-10-17T04:57:36.275Z,102361.75
2022-10-17T05:00:05.312Z,102359.97
2022-10-17T05:02:33.285Z,102363.41
2022-10-17T05:05:01.202Z,102364.31
2022-10-17T05:07:30.843Z,102366.03
2022-10-17T05:09:59.257Z,102377.22
2022-10-17T05:12:27.715Z,102366.97
2022-10-17T05:14:56.224Z,102380.69
2022-10-17T05:17:24.403Z,102381.53
2022-10-17T05:19:52.429Z,102383.25
2022-10-17T05:22:20.422Z,102387.47
2022-10-17T05:24:50.170Z,102380.53
2022-10-17T05:27:18.179Z,102379.59
2022-10-17T05:29:46.503Z,102391.47
2022-10-17T05:32:14.595Z,102396.44
2022-10-17T05:34:42.989Z,102388.56
2022-10-17T05:37:11.282Z,102392.72
2022-10-17T05:39:39.378Z,102400.25
2022-10-17T05:42:09.144Z,102380.34
2022-10-17T05:44:37.301Z,102406.72
2022-10-17T05:47:05.313Z,102404.72
2022-10-17T05:49:45.000Z,102401.91
2022-10-17T05:52:16.545Z,102420.44
2022-10-17T05:54:44.695Z,102425.31
2022-10-17T05:57:14.696Z,102425.91
2022-10-17T05:59:42.973Z,102427.34
2022-10-17T06:02:12.731Z,102437.28
2022-10-17T06:04:45.617Z,102442.78
2022-10-17T06:07:14.361Z,102428.91
2022-10-17T06:09:42.905Z,102441.34
2022-10-17T06:12:11.138Z,102440.28
2022-10-17T06:14:40.968Z,102445.03
2022-10-17T06:17:13.447Z,102442.13
2022-10-17T06:19:45.007Z,102444.22
2022-10-17T06:22:13.569Z,102436.00
2022-10-17T06:24:42.503Z,102448.38
2022-10-17T06:27:12.268Z,102456.56
2022-10-17T06:29:42.252Z,102451.44
2022-10-17T06:32:12.767Z,102451.69
2022-10-17T06:34:43.232Z,102450.94
2022-10-17T06:37:11.419Z,102455.59
2022-10-17T06:39:39.488Z,102458.50
2022-10-17T06:42:07.818Z,102457.16
2022-10-17T06:44:35.884Z,102464.84
2022-10-17T06:47:05.996Z,102463.50
2022-10-17T06:49:34.735Z,102476.25
2022-10-17T06:52:02.977Z,102460.31
2022-10-17T06:54:31.711Z,102469.47
2022-10-17T06:56:59.831Z,102470.66
2022-10-17T06:59:27.918Z,102474.56
2022-10-17T07:01:56.333Z,102479.38
2022-10-17T07:04:25.808Z,102474.50
2022-10-17T07:06:53.916Z,102470.47
2022-10-17T07:09:23.462Z,102476.81
2022-10-17T07:11:51.849Z,102469.84
2022-10-17T07:14:20.035Z,102468.25
2022-10-17T07:16:48.167Z,102464.03
2022-10-17T07:19:16.619Z,102472.03
2022-10-17T07:21:46.078Z,102475.63
2022-10-17T07:24:14.217Z,102474.19
2022-10-17T07:26:42.689Z,102478.09
2022-10-17T07:29:11.469Z,102487.56
2022-10-17T07:31:39.858Z,102475.59
2022-10-17T07:34:07.927Z,102481.22
2022-10-17T07:36:36.314Z,102483.53
2022-10-17T07:39:06.039Z,102479.06
2022-10-17T07:41:34.174Z,102462.63
2022-10-17T07:44:02.487Z,102475.16
2022-10-17T07:46:30.886Z,102475.34
2022-10-17T07:48:59.153Z,102484.53
2022-10-17T07:51:28.108Z,102479.59
2022-10-17T07:53:56.419Z,102481.44
2022-10-17T07:56:26.181Z,102480.44
2022-10-17T07:58:54.998Z,102476.19
2022-10-17T08:01:23.111Z,102481.50
2022-10-17T08:03:51.410Z,102485.28
2022-10-17T08:06:19.881Z,102476.63
2022-10-17T08:08:47.953Z,102472.41
2022-10-17T08:11:16.929Z,102477.34
2022-10-17T08:13:46.915Z,102478.69
2022-10-17T08:16:15.397Z,102465.06
2022-10-17T08:18:44.835Z,102476.25
2022-10-17T08:21:14.369Z,102465.94
2022-10-17T08:23:42.909Z,102470.88
2022-10-17T08:26:13.661Z,102460.84
2022-10-17T08:28:42.591Z,102469.44
2022-10-17T08:31:14.296Z,102466.66
2022-10-17T08:33:43.590Z,102474.38
2022-10-17T08:36:14.107Z,102478.84
2022-10-17T08:38:43.845Z,102484.06
2022-10-17T08:41:19.135Z,102477.09
2022-10-17T08:43:57.159Z,102471.16
2022-10-17T08:46:32.450Z,102486.94
2022-10-17T08:49:02.443Z,102482.66
2022-10-17T08:51:35.316Z,102476.47
2022-10-17T08:54:08.187Z,102485.78
2022-10-17T08:56:48.517Z,102469.00
2022-10-17T08:59:21.948Z,102480.09
2022-10-17T09:01:58.696Z,102467.16
2022-10-17T09:04:57.567Z,102484.44
2022-10-17T09:07:34.380Z,102472.41
2022-10-17T09:10:11.784Z,102472.22
2022-10-17T09:12:48.823Z,102474.53
2022-10-17T09:15:35.977Z,102469.59
2022-10-17T09:18:13.293Z,102470.44
2022-10-17T09:20:46.321Z,102474.34
2022-10-17T09:23:18.935Z,102473.66
2022-10-17T09:25:49.584Z,102475.31
2022-10-17T09:28:23.644Z,102469.94
2022-10-17T09:30:58.346Z,102468.00
2022-10-17T09:33:35.243Z,102469.78
2022-10-17T09:36:14.597Z,102447.75
2022-10-17T09:38:44.670Z,102461.59
2022-10-17T09:41:43.455Z,102465.00
2022-10-17T09:44:21.939Z,102458.84
2022-10-17T09:47:03.226Z,102461.13
2022-10-17T09:49:35.697Z,102459.41
2022-10-17T09:52:06.748Z,102459.25
2022-10-17T09:54:43.950Z,102452.34
2022-10-17T09:57:14.119Z,102460.06
2022-10-17T09:59:43.823Z,102456.06
2022-10-17T10:02:23.475Z,102440.63
2022-10-17T10:05:19.240Z,102449.75
2022-10-17T10:08:03.786Z,102443.28
2022-10-17T10:10:33.523Z,102446.47
2022-10-17T10:13:07.800Z,102441.16
2022-10-17T10:15:41.216Z,102439.00
2022-10-17T10:18:33.151Z,102432.22
2022-10-17T10:21:11.982Z,102436.91
2022-10-17T10:23:41.563Z,102415.56
2022-10-17T10:26:24.156Z,102435.34
2022-10-17T10:28:58.437Z,102427.09
2022-10-17T10:31:40.212Z,102407.59
2022-10-17T10:34:22.691Z,102417.78
2022-10-17T10:36:57.725Z,102421.91
2022-10-17T10:39:34.676Z,102390.56
2022-10-17T10:42:04.435Z,102404.34
2022-10-17T10:44:34.574Z,102410.34
2022-10-17T10:47:20.667Z,102406.31
2022-10-17T10:49:49.642Z,102409.00
2022-10-17T10:52:29.024Z,102401.72
2022-10-17T10:55:05.359Z,102399.97
2022-10-17T10:57:35.372Z,102396.16
2022-10-17T11:00:10.319Z,102393.00
2022-10-17T11:02:45.898Z,102399.28
2022-10-17T11:05:19.338Z,102388.22
2022-10-17T11:07:56.327Z,102376.09
2022-10-17T11:10:32.419Z,102383.25
2022-10-17T11:13:06.334Z,102378.34
2022-10-17T11:15:38.083Z,102374.25
2022-10-17T11:18:09.347Z,102380.41
2022-10-17T11:20:44.358Z,102379.84
2022-10-17T11:23:21.691Z,102368.41
2022-10-17T11:25:53.691Z,102371.41
2022-10-17T11:28:26.229Z,102364.00
2022-10-17T11:31:03.336Z,102362.13
2022-10-17T11:33:43.623Z,102360.97
2022-10-17T11:36:12.614Z,102361.25
2022-10-17T11:38:48.771Z,102347.19
2022-10-17T11:41:28.161Z,102352.00
2022-10-17T11:44:01.186Z,102353.03
2022-10-17T11:46:30.682Z,102335.72
2022-10-17T11:49:09.287Z,102347.94
2022-10-17T11:52:00.732Z,102346.53
2022-10-17T11:54:37.168Z,102342.50
2022-10-17T11:57:30.275Z,102344.44
2022-10-17T12:00:09.994Z,102343.03
2022-10-17T12:02:47.562Z,102336.47
2022-10-17T12:05:25.286Z,102339.50
2022-10-17T12:08:01.173Z,102332.66
2022-10-17T12:10:46.647Z,102345.31
2022-10-17T12:13:52.204Z,102338.38
2022-10-17T12:16:44.051Z,102335.94
2022-10-17T12:19:34.469Z,102335.75
2022-10-17T12:22:22.873Z,102336.50
2022-10-17T12:25:01.128Z,102337.91
2022-10-17T12:27:46.692Z,102333.47
2022-10-17T12:30:24.601Z,102330.19
2022-10-17T12:33:22.541Z,102325.41
2022-10-17T12:35:52.595Z,102329.56
2022-10-17T12:38:27.688Z,102328.44
2022-10-17T12:40:58.498Z,102318.09
2022-10-17T12:43:58.219Z,102321.75
2022-10-17T12:46:59.860Z,102317.72
2022-10-17T12:49:51.100Z,102319.31
2022-10-17T12:52:43.364Z,102317.06
2022-10-17T12:55:17.124Z,102309.28
2022-10-17T12:57:58.867Z,102320.16
2022-10-17T13:00:36.336Z,102315.75
2022-10-17T13:03:12.569Z,102312.19
2022-10-17T13:05:45.477Z,102313.56
2022-10-17T13:08:19.610Z,102310.34
2022-10-17T13:10:52.525Z,102313.69
2022-10-17T13:13:24.346Z,102315.75
2022-10-17T13:15:56.260Z,102314.78
2022-10-17T13:18:26.280Z,102315.38
2022-10-17T13:21:00.271Z,102318.25
2022-10-17T13:23:32.120Z,102310.91
2022-10-17T13:26:14.394Z,102312.44
2022-10-17T13:28:43.512Z,102310.59
2022-10-17T13:31:32.051Z,102313.72
2022-10-17T13:34:02.419Z,102304.16
2022-10-17T13:36:32.674Z,102315.06
2022-10-17T13:39:09.392Z,102320.13
2022-10-17T13:41:41.503Z,102322.69
2022-10-17T13:44:15.595Z,102318.97
2022-10-17T13:46:45.996Z,102317.84
2022-10-17T13:49:25.719Z,102325.22
2022-10-17T13:51:56.871Z,102323.19
2022-10-17T13:54:35.723Z,102326.75
2022-10-17T13:57:05.757Z,102325.28
2022-10-17T13:59:40.144Z,102319.16
2022-10-17T14:02:15.852Z,102320.59
2022-10-17T14:05:15.125Z,102318.75
2022-10-17T14:08:05.575Z,102326.41
2022-10-17T14:10:29.431Z,102333.06
2022-10-17T14:12:58.348Z,102329.84
2022-10-17T14:15:28.916Z,102322.63
2022-10-17T14:18:06.739Z,102331.16
2022-10-17T14:23:37.357Z,102326.72
2022-10-17T14:26:11.783Z,102324.88
2022-10-17T14:28:41.379Z,102331.69
2022-10-17T14:31:19.963Z,102330.78
2022-10-17T14:33:52.346Z,102332.44
2022-10-17T14:36:21.870Z,102333.72
2022-10-17T14:38:53.068Z,102336.06
2022-10-17T14:41:43.218Z,102336.75
2022-10-17T14:44:20.712Z,102333.97
2022-10-17T14:46:52.514Z,102338.13
2022-10-17T14:49:29.039Z,102342.09
2022-10-17T14:52:29.184Z,102341.31
2022-10-17T14:54:58.777Z,102340.97
2022-10-17T14:57:43.925Z,102344.09
2022-10-17T15:00:16.406Z,102349.09
2022-10-17T15:02:45.399Z,102340.63
2022-10-17T15:05:15.887Z,102350.25
2022-10-17T15:07:45.037Z,102353.97
2022-10-17T15:10:30.019Z,102358.44
2022-10-17T15:13:26.728Z,102335.78
2022-10-17T15:15:52.310Z,102360.13
2022-10-17T15:18:20.835Z,102351.81
2022-10-17T15:20:56.290Z,102364.44
2022-10-17T15:23:33.040Z,102358.13
2022-10-17T15:26:01.506Z,102358.59
2022-10-17T15:28:29.712Z,102355.63
2022-10-17T15:30:58.138Z,102354.31
2022-10-17T15:33:26.306Z,102361.75
2022-10-17T15:38:24.405Z,102360.22
2022-10-17T15:40:52.539Z,102358.03
2022-10-17T15:43:20.824Z,102364.75
2022-10-17T15:45:49.371Z,102360.31
2022-10-17T15:48:23.368Z,102371.22
2022-10-17T15:50:51.338Z,102370.78
2022-10-17T15:53:20.889Z,102365.38
2022-10-17T15:55:51.086Z,102365.94
2022-10-17T15:58:20.386Z,102375.16
2022-10-17T16:00:49.769Z,102380.63
2022-10-17T16:03:18.460Z,102381.88
2022-10-17T16:05:46.610Z,102358.63
2022-10-17T16:08:14.657Z,102386.06
2022-10-17T16:10:44.260Z,102386.44
2022-10-17T16:13:17.933Z,102399.00
2022-10-17T16:15:46.101Z,102396.72
2022-10-17T16:18:14.282Z,102395.50
2022-10-17T16:20:43.250Z,102399.31
2022-10-17T16:23:14.018Z,102402.19
2022-10-17T16:25:44.082Z,102393.91
2022-10-17T16:28:12.244Z,102399.44
2022-10-17T16:30:46.397Z,102404.09
2022-10-17T16:33:14.932Z,102403.63
2022-10-17T16:35:43.316Z,102410.72
2022-10-17T16:38:11.391Z,102405.66
2022-10-17T16:40:40.422Z,102396.50
2022-10-17T16:43:13.307Z,102408.69
2022-10-17T16:45:41.562Z,102409.59
2022-10-17T16:48:10.833Z,102408.03
2022-10-17T16:50:40.767Z,102395.34
2022-10-17T16:53:08.989Z,102420.53
2022-10-17T16:55:37.101Z,102404.31
2022-10-17T16:58:05.277Z,102409.66
2022-10-17T17:00:35.209Z,102414.16
2022-10-17T17:03:03.363Z,102413.38
2022-10-17T17:05:31.478Z,102410.19
2022-10-17T17:07:59.974Z,102412.09
2022-10-17T17:10:28.131Z,102411.41
2022-10-17T17:12:56.204Z,102415.03
2022-10-17T17:15:24.617Z,102393.97
2022-10-17T17:17:55.805Z,102416.16
2022-10-17T17:20:24.583Z,102412.94
2022-10-17T17:22:53.013Z,102411.50
2022-10-17T17:25:21.203Z,102416.03
2022-10-17T17:27:49.564Z,102423.09
2022-10-17T17:30:18.471Z,102416.44
2022-10-17T17:32:46.799Z,102396.88
2022-10-17T17:35:16.843Z,102420.72
2022-10-17T17:37:45.205Z,102412.81
2022-10-17T17:40:13.759Z,102411.56
2022-10-17T17:42:42.200Z,102414.72
2022-10-17T17:45:11.217Z,102409.28
2022-10-17T17:47:39.158Z,102415.25
2022-10-17T17:50:08.090Z,102412.66
2022-10-17T17:52:37.609Z,102416.22
2022-10-17T17:55:06.318Z,102414.72
2022-10-17T17:57:34.618Z,102411.28
2022-10-17T18:00:02.691Z,102414.91
2022-10-17T18:02:30.927Z,102412.25
2022-10-17T18:04:59.181Z,102422.00
2022-10-17T18:07:27.538Z,102423.81
2022-10-17T18:09:57.427Z,102429.94
2022-10-17T18:12:25.487Z,102430.56
2022-10-17T18:14:53.553Z,102427.25
2022-10-17T18:17:21.708Z,102430.78
2022-10-17T18:19:49.993Z,102417.84
2022-10-17T18:22:18.202Z,102430.72
2022-10-17T18:24:46.571Z,102424.41
2022-10-17T18:27:16.540Z,102428.25
2022-10-17T18:29:45.983Z,102429.16
2022-10-17T18:32:14.524Z,102432.91
2022-10-17T18:34:43.517Z,102429.28
2022-10-17T18:37:11.555Z,102429.50
2022-10-17T18:39:39.671Z,102431.16
2022-10-17T18:42:07.909Z,102428.69
2022-10-17T18:44:37.420Z,102436.72
2022-10-17T18:47:05.530Z,102441.31
2022-10-17T18:49:33.545Z,102438.00
2022-10-17T18:52:01.625Z,102426.88
2022-10-17T18:54:32.243Z,102433.16
2022-10-17T18:57:00.575Z,102432.28
2022-10-17T18:59:28.648Z,102432.00
2022-10-17T19:01:58.620Z,102441.06
2022-10-17T19:04:27.657Z,102438.38
2022-10-17T19:06:56.103Z,102443.94
2022-10-17T19:09:24.314Z,102436.00
2022-10-17T19:11:52.385Z,102443.81
2022-10-17T19:14:20.659Z,102451.25
2022-10-17T19:16:50.979Z,102448.31
2022-10-17T19:19:22.449Z,102456.91
2022-10-17T19:21:51.145Z,102447.81
2022-10-17T19:24:21.024Z,102444.34
2022-10-17T19:26:53.114Z,102455.09
2022-10-17T19:29:22.420Z,102452.03
2022-10-17T19:31:50.816Z,102459.28
2022-10-17T19:34:20.875Z,102448.38
2022-10-17T19:36:49.079Z,102459.47
2022-10-17T19:39:18.840Z,102452.47
2022-10-17T19:41:48.416Z,102449.09
2022-10-17T19:44:17.070Z,102446.88
2022-10-17T19:46:47.065Z,102452.50
2022-10-17T19:49:15.724Z,102452.72
2022-10-17T19:51:45.700Z,102449.53
2022-10-17T19:54:15.411Z,102451.41
2022-10-17T19:56:43.740Z,102451.59
2022-10-17T19:59:14.209Z,102446.47
2022-10-17T20:01:42.735Z,102455.75
2022-10-17T20:04:12.198Z,102456.56
2022-10-17T20:06:41.708Z,102441.22
2022-10-17T20:09:16.589Z,102463.72
2022-10-17T20:11:46.345Z,102464.00
2022-10-17T20:14:14.791Z,102458.31
2022-10-17T20:16:44.949Z,102450.94
2022-10-17T20:19:14.765Z,102460.78
2022-10-17T20:21:44.204Z,102466.25
2022-10-17T20:24:16.544Z,102453.66
2022-10-17T20:26:46.145Z,102448.56
2022-10-17T20:29:17.738Z,102451.16
2022-10-17T20:31:47.284Z,102453.75
2022-10-17T20:34:17.774Z,102454.63
2022-10-17T20:36:46.347Z,102446.13
2022-10-17T20:39:17.832Z,102447.69
2022-10-17T20:41:46.979Z,102450.28
2022-10-17T20:44:15.157Z,102439.94
2022-10-17T20:47:00.630Z,102441.50
2022-10-17T20:49:29.910Z,102447.56
2022-10-17T20:51:58.153Z,102444.25
2022-10-17T20:54:29.260Z,102450.94
2022-10-17T20:56:59.856Z,102454.38
2022-10-17T20:59:30.680Z,102427.81
2022-10-17T21:01:59.363Z,102437.19
2022-10-17T21:04:45.552Z,102444.00
2022-10-17T21:07:14.934Z,102437.88
2022-10-17T21:09:45.587Z,102449.72
2022-10-17T21:12:21.608Z,102438.50
2022-10-17T21:14:59.262Z,102456.44
2022-10-17T21:17:27.349Z,102447.78
2022-10-17T21:19:56.081Z,102445.97
2022-10-17T21:22:24.194Z,102448.69
2022-10-17T21:24:53.894Z,102436.94
2022-10-17T21:27:22.064Z,102445.59
2022-10-17T21:29:50.164Z,102441.19
2022-10-17T21:32:31.965Z,102434.22
2022-10-17T21:35:07.236Z,102451.44
2022-10-17T21:37:35.656Z,102438.44
2022-10-17T21:40:05.641Z,102441.69
2022-10-17T21:42:34.043Z,102430.84
2022-10-17T21:45:04.743Z,102434.63
2022-10-17T21:47:41.850Z,102438.00
2022-10-17T21:50:13.854Z,102440.06
2022-10-17T21:52:42.013Z,102438.88
2022-10-17T21:55:11.778Z,102432.81
2022-10-17T21:57:39.852Z,102432.19
2022-10-17T22:00:09.667Z,102435.19
2022-10-17T22:02:37.785Z,102437.19
2022-10-17T22:05:06.269Z,102437.56
2022-10-17T22:07:34.353Z,102441.88
2022-10-17T22:10:02.838Z,102435.03
2022-10-17T22:12:32.800Z,102418.13
2022-10-17T22:15:01.627Z,102421.19
2022-10-17T22:17:30.046Z,102420.75
2022-10-17T22:19:58.347Z,102424.22
2022-10-17T22:22:26.455Z,102421.00
2022-10-17T22:24:54.445Z,102412.56
2022-10-17T22:27:22.486Z,102416.41
2022-10-17T22:29:52.229Z,102418.38
2022-10-17T22:32:22.505Z,102423.84
2022-10-17T22:34:50.862Z,102429.53
2022-10-17T22:37:18.883Z,102418.72
2022-10-17T22:39:47.223Z,102411.66
2022-10-17T22:42:15.370Z,102417.53
2022-10-17T22:44:43.657Z,102417.53
2022-10-17T22:47:13.516Z,102416.72
2022-10-17T22:49:41.628Z,102410.78
2022-10-17T22:52:09.743Z,102423.81
2022-10-17T22:54:37.792Z,102423.03
2022-10-17T22:57:05.962Z,102412.81
2022-10-17T22:59:34.927Z,102416.34
2022-10-17T23:02:02.988Z,102413.00
2022-10-17T23:04:32.631Z,102412.19
2022-10-17T23:07:00.706Z,102422.59
2022-10-17T23:09:29.455Z,102418.44
2022-10-17T23:11:57.556Z,102416.72
2022-10-17T23:14:25.679Z,102415.84
2022-10-17T23:16:53.809Z,102420.28
2022-10-17T23:19:21.872Z,102418.59
2022-10-17T23:21:51.296Z,102419.53
2022-10-17T23:24:19.397Z,102422.34
2022-10-17T23:26:47.573Z,102431.94
2022-10-17T23:29:15.670Z,102420.91
2022-10-17T23:31:43.749Z,102421.13
2022-10-17T23:34:11.887Z,102423.88
2022-10-17T23:36:40.071Z,102422.19
2022-10-17T23:39:10.402Z,102416.47
2022-10-17T23:41:38.498Z,102415.72
2022-10-17T23:44:07.439Z,102412.22
2022-10-17T23:46:35.496Z,102408.09
2022-10-17T23:49:03.527Z,102405.66
2022-10-17T23:51:31.742Z,102404.28
2022-10-17T23:53:59.817Z,102409.41
2022-10-17T23:56:29.125Z,102415.44
2022-10-17T23:58:57.523Z,102410.84
